createdAt,value
2022-12-18T00:01:22.956Z,5.00
2022-12-18T00:03:50.284Z,4.97
2022-12-18T00:06:17.326Z,5.02
2022-12-18T00:08:44.761Z,5.01
2022-12-18T00:11:13.904Z,5.00
2022-12-18T00:13:41.425Z,5.01
2022-12-18T00:16:10.511Z,5.01
2022-12-18T00:18:38.193Z,5.01
2022-12-18T00:21:06.725Z,5.02
2022-12-18T00:23:34.339Z,5.04
2022-12-18T00:26:28.411Z,5.00
2022-12-18T00:28:56.693Z,5.02
2022-12-18T00:31:24.761Z,5.05
2022-12-18T00:33:55.403Z,5.04
2022-12-18T00:36:30.041Z,5.04
2022-12-18T00:38:57.957Z,5.05
2022-12-18T00:41:43.426Z,5.04
2022-12-18T00:44:11.025Z,5.04
2022-12-18T00:46:37.753Z,5.05
2022-12-18T00:49:05.103Z,5.04
2022-12-18T00:51:31.886Z,5.03
2022-12-18T00:53:58.975Z,5.05
2022-12-18T00:56:25.945Z,5.04
2022-12-18T00:58:53.253Z,5.05
2022-12-18T01:01:20.819Z,5.03
2022-12-18T01:03:48.174Z,5.05
2022-12-18T01:06:15.440Z,5.05
2022-12-18T01:08:42.722Z,5.04
2022-12-18T01:11:10.668Z,5.05
2022-12-18T01:13:38.046Z,5.09
2022-12-18T01:16:05.388Z,5.05
2022-12-18T01:18:32.617Z,5.06
2022-12-18T01:20:59.509Z,5.09
2022-12-18T01:23:29.329Z,5.10
2022-12-18T01:25:56.024Z,5.08
2022-12-18T01:28:23.022Z,5.10
2022-12-18T01:30:49.755Z,5.09
2022-12-18T01:33:16.821Z,5.11
2022-12-18T01:35:43.884Z,5.11
2022-12-18T01:38:10.903Z,5.11
2022-12-18T01:40:37.850Z,5.12
2022-12-18T01:43:04.876Z,5.11
2022-12-18T01:45:32.341Z,5.12
2022-12-18T01:47:59.380Z,5.12
2022-12-18T01:50:35.321Z,5.13
2022-12-18T01:53:12.537Z,5.11
2022-12-18T01:55:59.875Z,5.14
2022-12-18T01:58:51.850Z,5.13
2022-12-18T02:01:18.974Z,5.16
2022-12-18T02:03:46.380Z,5.14
2022-12-18T02:06:22.137Z,5.15
2022-12-18T02:08:55.549Z,5.17
2022-12-18T02:11:22.301Z,5.16
2022-12-18T02:14:14.178Z,5.14
2022-12-18T02:16:48.010Z,5.15
2022-12-18T02:19:59.743Z,5.14
2022-12-18T02:22:47.982Z,5.16
2022-12-18T02:26:02.591Z,5.17
2022-12-18T02:28:31.568Z,5.14
2022-12-18T02:30:59.694Z,5.15
2022-12-18T02:33:26.816Z,5.17
2022-12-18T02:35:54.313Z,5.16
2022-12-18T02:38:21.069Z,5.16
2022-12-18T02:40:48.119Z,5.16
2022-12-18T02:43:15.694Z,5.15
2022-12-18T02:45:56.256Z,5.18
2022-12-18T02:48:31.742Z,5.18
2022-12-18T02:51:10.071Z,5.20
2022-12-18T02:53:41.821Z,5.20
2022-12-18T02:56:30.259Z,5.18
2022-12-18T02:59:01.521Z,5.18
2022-12-18T03:01:32.956Z,5.19
2022-12-18T03:04:05.478Z,5.23
2022-12-18T03:06:41.411Z,5.19
2022-12-18T03:09:13.643Z,5.13
2022-12-18T03:12:00.870Z,5.19
2022-12-18T03:14:28.166Z,5.19
2022-12-18T03:16:55.680Z,5.19
2022-12-18T03:19:23.815Z,5.21
2022-12-18T03:21:52.800Z,5.17
2022-12-18T03:24:19.813Z,5.16
2022-12-18T03:26:49.048Z,5.18
2022-12-18T03:29:22.223Z,5.18
2022-12-18T03:31:52.522Z,5.17
2022-12-18T03:34:23.098Z,5.20
2022-12-18T03:36:50.084Z,5.20
2022-12-18T03:39:16.801Z,5.19
2022-12-18T03:42:12.204Z,5.16
2022-12-18T03:44:46.690Z,5.14
2022-12-18T03:47:18.147Z,5.17
2022-12-18T03:49:56.990Z,5.19
2022-12-18T03:52:34.216Z,5.13
2022-12-18T03:55:00.992Z,5.11
2022-12-18T03:57:29.612Z,5.12
2022-12-18T03:59:58.213Z,5.18
2022-12-18T04:02:26.076Z,5.14
2022-12-18T04:04:57.974Z,5.18
2022-12-18T04:07:25.013Z,5.13
2022-12-18T04:09:52.106Z,5.13
2022-12-18T04:12:19.125Z,5.12
2022-12-18T04:14:45.927Z,5.16
2022-12-18T04:17:13.009Z,5.14
2022-12-18T04:19:39.768Z,5.16
2022-12-18T04:22:10.320Z,5.16
2022-12-18T04:24:37.273Z,5.15
2022-12-18T04:27:04.998Z,5.11
2022-12-18T04:29:33.135Z,5.10
2022-12-18T04:32:00.201Z,5.12
2022-12-18T04:34:27.512Z,5.12
2022-12-18T04:36:54.515Z,5.14
2022-12-18T04:39:21.204Z,5.14
2022-12-18T04:41:48.197Z,5.14
2022-12-18T04:44:15.155Z,5.13
2022-12-18T04:46:42.360Z,5.14
2022-12-18T04:49:09.207Z,5.18
2022-12-18T04:51:36.287Z,5.16
2022-12-18T04:54:03.167Z,5.20
2022-12-18T04:56:31.523Z,5.19
2022-12-18T04:58:58.251Z,5.22
2022-12-18T05:01:29.449Z,5.21
2022-12-18T05:03:59.443Z,5.23
2022-12-18T05:06:26.451Z,5.22
2022-12-18T05:08:53.226Z,5.16
2022-12-18T05:11:20.336Z,5.15
2022-12-18T05:13:47.099Z,5.18
2022-12-18T05:16:14.429Z,5.12
2022-12-18T05:18:41.267Z,5.15
2022-12-18T05:21:08.359Z,5.19
2022-12-18T05:23:35.687Z,5.25
2022-12-18T05:26:03.967Z,5.23
2022-12-18T05:28:31.636Z,5.18
2022-12-18T05:30:59.814Z,5.24
2022-12-18T05:33:27.434Z,5.23
2022-12-18T05:35:55.447Z,5.24
2022-12-18T05:38:22.544Z,5.23
2022-12-18T05:40:50.628Z,5.22
2022-12-18T05:43:21.117Z,5.23
2022-12-18T05:45:48.936Z,5.24
2022-12-18T05:48:15.888Z,5.22
2022-12-18T05:50:44.934Z,5.18
2022-12-18T05:53:11.938Z,5.16
2022-12-18T05:55:40.131Z,5.17
2022-12-18T05:58:07.458Z,5.20
2022-12-18T06:00:35.895Z,5.18
2022-12-18T06:03:02.851Z,5.18
2022-12-18T06:05:30.014Z,5.17
2022-12-18T06:07:56.762Z,5.16
2022-12-18T06:10:23.822Z,5.11
2022-12-18T06:12:50.519Z,5.12
2022-12-18T06:15:17.536Z,5.19
2022-12-18T06:17:44.230Z,5.19
2022-12-18T06:20:11.892Z,5.20
2022-12-18T06:22:38.639Z,5.25
2022-12-18T06:25:06.966Z,5.19
2022-12-18T06:27:34.665Z,5.17
2022-12-18T06:30:01.747Z,5.14
2022-12-18T06:32:28.477Z,5.16
2022-12-18T06:34:56.366Z,5.18
2022-12-18T06:37:27.000Z,5.15
2022-12-18T06:39:54.669Z,5.16
2022-12-18T06:42:21.378Z,5.15
2022-12-18T06:44:48.399Z,5.15
2022-12-18T06:47:15.450Z,5.14
2022-12-18T06:49:42.446Z,5.15
2022-12-18T06:52:09.406Z,5.12
2022-12-18T06:54:36.479Z,5.13
2022-12-18T06:57:03.201Z,5.12
2022-12-18T06:59:30.193Z,5.11
2022-12-18T07:01:57.062Z,5.14
2022-12-18T07:04:29.252Z,5.14
2022-12-18T07:06:55.965Z,5.12
2022-12-18T07:09:22.947Z,5.18
2022-12-18T07:11:49.672Z,5.30
2022-12-18T07:14:16.741Z,5.21
2022-12-18T07:16:43.549Z,5.20
2022-12-18T07:19:10.773Z,5.16
2022-12-18T07:21:37.517Z,5.15
2022-12-18T07:24:05.300Z,5.11
2022-12-18T07:26:31.997Z,5.12
2022-12-18T07:28:59.184Z,5.11
2022-12-18T07:31:26.216Z,5.17
2022-12-18T07:33:53.348Z,5.22
2022-12-18T07:36:20.221Z,5.15
2022-12-18T07:38:50.457Z,5.24
2022-12-18T07:41:19.629Z,5.24
2022-12-18T07:43:46.741Z,5.13
2022-12-18T07:46:16.960Z,5.13
2022-12-18T07:48:46.286Z,5.22
2022-12-18T07:51:16.941Z,5.26
2022-12-18T07:53:45.220Z,5.27
2022-12-18T07:56:29.573Z,5.31
2022-12-18T07:58:57.476Z,5.28
2022-12-18T08:01:24.405Z,5.26
2022-12-18T08:03:52.505Z,5.29
2022-12-18T08:06:23.265Z,5.34
2022-12-18T08:08:54.963Z,5.35
2022-12-18T08:11:22.220Z,5.35
2022-12-18T08:13:49.416Z,5.36
2022-12-18T08:16:16.691Z,5.35
2022-12-18T08:18:43.783Z,5.38
2022-12-18T08:21:17.786Z,5.34
2022-12-18T08:23:45.487Z,5.29
2022-12-18T08:26:12.538Z,5.33
2022-12-18T08:28:39.628Z,5.33
2022-12-18T08:31:06.639Z,5.35
2022-12-18T08:33:33.780Z,5.31
2022-12-18T08:36:00.902Z,5.31
2022-12-18T08:38:28.086Z,5.30
2022-12-18T08:41:01.691Z,5.29
2022-12-18T08:43:47.785Z,5.27
2022-12-18T08:46:18.761Z,5.25
2022-12-18T08:48:45.889Z,5.18
2022-12-18T08:51:12.722Z,5.24
2022-12-18T08:53:40.099Z,5.24
2022-12-18T08:56:07.536Z,5.27
2022-12-18T08:58:34.755Z,5.27
2022-12-18T09:01:03.113Z,5.28
2022-12-18T09:03:30.418Z,5.27
2022-12-18T09:05:57.435Z,5.27
2022-12-18T09:08:24.480Z,5.28
2022-12-18T09:10:51.278Z,5.32
2022-12-18T09:13:18.508Z,5.26
2022-12-18T09:15:49.902Z,5.28
2022-12-18T09:18:17.785Z,5.24
2022-12-18T09:20:44.758Z,5.23
2022-12-18T09:23:11.984Z,5.15
2022-12-18T09:25:38.983Z,5.13
2022-12-18T09:28:14.237Z,5.17
2022-12-18T09:30:45.569Z,5.25
2022-12-18T09:33:12.959Z,5.31
2022-12-18T09:35:40.416Z,5.24
2022-12-18T09:38:07.832Z,5.25
2022-12-18T09:40:36.898Z,5.27
2022-12-18T09:43:05.649Z,5.24
2022-12-18T09:45:40.666Z,5.26
2022-12-18T09:48:11.734Z,5.20
2022-12-18T09:50:39.792Z,5.28
2022-12-18T09:53:25.018Z,5.31
2022-12-18T09:55:51.839Z,5.28
2022-12-18T09:58:42.991Z,5.31
2022-12-18T10:01:14.483Z,5.33
2022-12-18T10:03:41.606Z,5.28
2022-12-18T10:06:27.981Z,5.29
2022-12-18T10:09:07.128Z,5.32
2022-12-18T10:12:14.882Z,5.28
2022-12-18T10:14:50.786Z,5.17
2022-12-18T10:17:20.469Z,5.16
2022-12-18T10:19:54.471Z,5.25
2022-12-18T10:22:37.110Z,5.31
2022-12-18T10:25:24.665Z,5.30
2022-12-18T10:27:53.915Z,5.32
2022-12-18T10:30:22.506Z,5.38
2022-12-18T10:32:49.279Z,5.36
2022-12-18T10:35:26.563Z,5.34
2022-12-18T10:38:05.339Z,5.36
2022-12-18T10:40:32.576Z,5.38
2022-12-18T10:43:15.608Z,5.39
2022-12-18T10:45:43.040Z,5.38
2022-12-18T10:48:19.670Z,5.39
2022-12-18T10:53:37.855Z,5.33
2022-12-18T10:56:05.886Z,5.35
2022-12-18T10:58:36.414Z,5.31
2022-12-18T11:01:18.854Z,5.34
2022-12-18T11:03:46.476Z,5.37
2022-12-18T11:06:22.796Z,5.38
2022-12-18T11:09:13.147Z,5.40
2022-12-18T11:11:41.595Z,5.29
2022-12-18T11:14:15.504Z,5.29
2022-12-18T11:17:16.891Z,5.36
2022-12-18T11:19:37.954Z,5.39
2022-12-18T11:22:20.394Z,5.38
2022-12-18T11:25:29.435Z,5.32
2022-12-18T11:27:41.733Z,5.32
2022-12-18T11:30:23.850Z,5.26
2022-12-18T11:33:12.169Z,5.26
2022-12-18T11:35:38.953Z,5.35
2022-12-18T11:38:20.185Z,5.32
2022-12-18T11:40:50.160Z,5.29
2022-12-18T11:43:20.341Z,5.46
2022-12-18T11:45:55.851Z,5.42
2022-12-18T11:48:29.007Z,5.37
2022-12-18T11:50:56.851Z,5.43
2022-12-18T11:53:24.620Z,5.37
2022-12-18T11:55:54.645Z,5.42
2022-12-18T11:58:22.547Z,5.41
2022-12-18T12:01:16.125Z,5.39
2022-12-18T12:03:57.313Z,5.36
2022-12-18T12:06:36.583Z,5.42
2022-12-18T12:09:12.874Z,5.52
2022-12-18T12:11:54.504Z,5.50
2022-12-18T12:14:39.830Z,5.56
2022-12-18T12:17:15.491Z,5.44
2022-12-18T12:20:00.658Z,5.45
2022-12-18T12:22:50.125Z,5.44
2022-12-18T12:25:27.970Z,5.45
2022-12-18T12:28:16.435Z,5.50
2022-12-18T12:31:02.030Z,5.53
2022-12-18T12:33:36.264Z,5.50
2022-12-18T12:36:32.619Z,5.50
2022-12-18T12:39:02.323Z,5.50
2022-12-18T12:41:52.398Z,5.49
2022-12-18T12:44:29.588Z,5.52
2022-12-18T12:46:59.417Z,5.50
2022-12-18T12:49:28.175Z,5.47
2022-12-18T12:52:01.771Z,5.50
2022-12-18T12:54:28.914Z,5.49
2022-12-18T12:57:01.807Z,5.51
2022-12-18T12:59:39.558Z,5.52
2022-12-18T13:02:07.138Z,5.52
2022-12-18T13:04:37.831Z,5.53
2022-12-18T13:07:12.707Z,5.51
2022-12-18T13:10:17.221Z,5.49
2022-12-18T13:13:07.195Z,5.48
2022-12-18T13:16:07.709Z,5.50
2022-12-18T13:18:34.724Z,5.48
2022-12-18T13:21:03.595Z,5.50
2022-12-18T13:23:32.496Z,5.49
2022-12-18T13:26:28.996Z,5.49
2022-12-18T13:28:57.487Z,5.47
2022-12-18T13:31:30.821Z,5.47
2022-12-18T13:34:27.503Z,5.47
2022-12-18T13:36:55.953Z,5.48
2022-12-18T13:39:32.775Z,5.45
2022-12-18T13:42:07.544Z,5.46
2022-12-18T13:44:39.972Z,5.50
2022-12-18T13:47:38.477Z,5.50
2022-12-18T13:50:35.935Z,5.53
2022-12-18T13:53:04.448Z,5.53
2022-12-18T13:55:31.491Z,5.50
2022-12-18T13:58:07.494Z,5.47
2022-12-18T14:00:34.638Z,5.53
2022-12-18T14:03:01.631Z,5.47
2022-12-18T14:05:33.267Z,5.46
2022-12-18T14:08:04.177Z,5.43
2022-12-18T14:10:48.719Z,5.45
2022-12-18T14:13:20.706Z,5.46
2022-12-18T14:15:48.541Z,5.39
2022-12-18T14:18:39.116Z,5.43
2022-12-18T14:21:06.377Z,5.43
2022-12-18T14:23:39.126Z,5.43
2022-12-18T14:26:26.388Z,5.43
2022-12-18T14:28:54.853Z,5.43
2022-12-18T14:31:26.415Z,5.41
2022-12-18T14:33:53.509Z,5.41
2022-12-18T14:36:29.709Z,5.41
2022-12-18T14:39:00.207Z,5.39
2022-12-18T14:41:27.317Z,5.41
2022-12-18T14:43:54.984Z,5.41
2022-12-18T14:46:31.401Z,5.43
2022-12-18T14:48:58.486Z,5.44
2022-12-18T14:51:26.993Z,5.43
2022-12-18T14:54:10.852Z,5.43
2022-12-18T14:56:43.203Z,5.42
2022-12-18T14:59:24.198Z,5.40
2022-12-18T15:01:55.015Z,5.40
2022-12-18T15:04:34.843Z,5.46
2022-12-18T15:07:21.884Z,5.46
2022-12-18T15:10:24.191Z,5.42
2022-12-18T15:12:56.982Z,5.42
2022-12-18T15:15:39.227Z,5.40
2022-12-18T15:18:12.734Z,5.43
2022-12-18T15:20:49.374Z,5.43
2022-12-18T15:23:23.387Z,5.41
2022-12-18T15:25:56.615Z,5.46
2022-12-18T15:28:25.904Z,5.43
2022-12-18T15:31:03.394Z,5.48
2022-12-18T15:33:38.112Z,5.62
2022-12-18T15:36:06.935Z,5.64
2022-12-18T15:38:34.035Z,5.61
2022-12-18T15:41:00.879Z,5.52
2022-12-18T15:43:37.544Z,5.49
2022-12-18T15:46:10.426Z,5.49
2022-12-18T15:48:42.288Z,5.45
2022-12-18T15:51:36.552Z,5.47
2022-12-18T15:54:05.357Z,5.46
2022-12-18T15:56:50.765Z,5.47
2022-12-18T15:59:19.720Z,5.46
2022-12-18T16:01:48.116Z,5.64
2022-12-18T16:04:16.611Z,5.67
2022-12-18T16:07:12.656Z,5.64
2022-12-18T16:09:30.788Z,5.57
2022-12-18T16:11:57.549Z,5.54
2022-12-18T16:14:29.374Z,5.51
2022-12-18T16:16:58.326Z,5.50
2022-12-18T16:19:25.500Z,5.50
2022-12-18T16:21:53.255Z,5.49
2022-12-18T16:24:22.946Z,5.54
2022-12-18T16:26:49.974Z,5.50
2022-12-18T16:29:17.039Z,5.48
2022-12-18T16:31:43.774Z,5.51
2022-12-18T16:34:26.837Z,5.50
2022-12-18T16:37:06.432Z,5.48
2022-12-18T16:39:35.342Z,5.50
2022-12-18T16:42:05.899Z,5.52
2022-12-18T16:44:34.548Z,5.53
2022-12-18T16:47:03.211Z,5.50
2022-12-18T16:49:30.515Z,5.47
2022-12-18T16:51:57.363Z,5.45
2022-12-18T16:54:24.822Z,5.49
2022-12-18T16:56:52.137Z,5.47
2022-12-18T16:59:19.203Z,5.45
2022-12-18T17:01:46.916Z,5.44
2022-12-18T17:04:14.202Z,5.45
2022-12-18T17:06:45.036Z,5.51
2022-12-18T17:09:14.341Z,5.49
2022-12-18T17:11:41.322Z,5.46
2022-12-18T17:14:09.671Z,5.49
2022-12-18T17:16:36.507Z,5.47
2022-12-18T17:19:03.958Z,5.45
2022-12-18T17:21:30.753Z,5.45
2022-12-18T17:24:00.134Z,5.46
2022-12-18T17:26:27.088Z,5.46
2022-12-18T17:28:54.102Z,5.44
2022-12-18T17:31:21.910Z,5.44
2022-12-18T17:33:49.075Z,5.45
2022-12-18T17:36:16.009Z,5.47
2022-12-18T17:38:43.536Z,5.49
2022-12-18T17:41:11.389Z,5.47
2022-12-18T17:43:45.969Z,5.49
2022-12-18T17:46:14.111Z,5.45
2022-12-18T17:48:41.540Z,5.45
2022-12-18T17:51:09.613Z,5.47
2022-12-18T17:53:41.401Z,5.45
2022-12-18T17:56:09.715Z,5.43
2022-12-18T17:58:37.059Z,5.45
2022-12-18T18:01:04.403Z,5.46
2022-12-18T18:03:33.049Z,5.46
2022-12-18T18:06:00.569Z,5.45
2022-12-18T18:08:28.560Z,5.47
2022-12-18T18:10:55.696Z,5.48
2022-12-18T18:13:46.882Z,5.45
2022-12-18T18:16:14.168Z,5.47
2022-12-18T18:18:41.244Z,5.43
2022-12-18T18:21:08.621Z,5.46
2022-12-18T18:23:36.189Z,5.47
2022-12-18T18:26:08.293Z,5.46
2022-12-18T18:28:36.111Z,5.48
2022-12-18T18:31:06.834Z,5.47
2022-12-18T18:33:33.998Z,5.47
2022-12-18T18:36:00.737Z,5.47
2022-12-18T18:38:28.180Z,5.50
2022-12-18T18:41:02.574Z,5.49
2022-12-18T18:43:29.663Z,5.48
2022-12-18T18:45:57.357Z,5.47
2022-12-18T18:48:24.999Z,5.48
2022-12-18T18:51:00.257Z,5.44
2022-12-18T18:53:28.490Z,5.47
2022-12-18T18:56:34.520Z,5.45
2022-12-18T18:58:45.793Z,5.43
2022-12-18T19:01:14.376Z,5.43
2022-12-18T19:03:41.985Z,5.47
2022-12-18T19:06:10.659Z,5.42
2022-12-18T19:08:38.601Z,5.44
2022-12-18T19:11:29.624Z,5.47
2022-12-18T19:13:59.192Z,5.45
2022-12-18T19:16:26.907Z,5.47
2022-12-18T19:18:59.994Z,5.45
2022-12-18T19:21:28.716Z,5.43
2022-12-18T19:23:58.865Z,5.47
2022-12-18T19:26:28.080Z,5.47
2022-12-18T19:29:03.870Z,5.41
2022-12-18T19:31:35.526Z,5.48
2022-12-18T19:34:05.022Z,5.44
2022-12-18T19:36:31.997Z,5.46
2022-12-18T19:39:00.805Z,5.42
2022-12-18T19:41:31.404Z,5.42
2022-12-18T19:44:00.271Z,5.43
2022-12-18T19:46:30.400Z,5.45
2022-12-18T19:48:59.300Z,5.40
2022-12-18T19:51:27.975Z,5.45
2022-12-18T19:53:58.950Z,5.48
2022-12-18T19:56:28.473Z,5.51
2022-12-18T19:58:55.578Z,5.47
2022-12-18T20:01:23.391Z,5.48
2022-12-18T20:03:50.681Z,5.50
2022-12-18T20:06:24.841Z,5.42
2022-12-18T20:08:51.907Z,5.37
2022-12-18T20:11:20.842Z,5.45
2022-12-18T20:13:47.994Z,5.49
2022-12-18T20:16:14.794Z,5.43
2022-12-18T20:18:41.915Z,5.44
2022-12-18T20:21:13.719Z,5.42
2022-12-18T20:23:41.633Z,5.37
2022-12-18T20:26:08.940Z,5.34
2022-12-18T20:28:36.108Z,5.33
2022-12-18T20:31:06.409Z,5.34
2022-12-18T20:33:34.242Z,5.31
2022-12-18T20:36:06.385Z,5.37
2022-12-18T20:38:34.965Z,5.36
2022-12-18T20:41:02.543Z,5.35
2022-12-18T20:43:30.089Z,5.35
2022-12-18T20:46:03.593Z,5.34
2022-12-18T20:48:30.849Z,5.28
2022-12-18T20:51:04.157Z,5.25
2022-12-18T20:53:32.065Z,5.20
2022-12-18T20:55:58.926Z,5.24
2022-12-18T20:58:25.981Z,5.26
2022-12-18T21:01:06.428Z,5.34
2022-12-18T21:03:40.382Z,5.32
2022-12-18T21:06:07.800Z,5.31
2022-12-18T21:08:34.889Z,5.32
2022-12-18T21:11:38.813Z,5.35
2022-12-18T21:14:16.912Z,5.34
2022-12-18T21:16:44.167Z,5.38
2022-12-18T21:19:12.890Z,5.36
2022-12-18T21:21:40.067Z,5.36
2022-12-18T21:24:07.663Z,5.31
2022-12-18T21:26:34.475Z,5.29
2022-12-18T21:29:02.965Z,5.36
2022-12-18T21:31:31.569Z,5.33
2022-12-18T21:34:01.283Z,5.34
2022-12-18T21:36:29.947Z,5.36
2022-12-18T21:38:57.403Z,5.36
2022-12-18T21:41:43.622Z,5.29
2022-12-18T21:44:11.957Z,5.34
2022-12-18T21:46:40.789Z,5.38
2022-12-18T21:49:08.603Z,5.34
2022-12-18T21:51:35.520Z,5.32
2022-12-18T21:54:02.576Z,5.35
2022-12-18T21:56:54.672Z,5.33
2022-12-18T21:59:24.201Z,5.32
2022-12-18T22:01:51.580Z,5.34
2022-12-18T22:04:19.223Z,5.29
2022-12-18T22:06:46.019Z,5.30
2022-12-18T22:09:14.664Z,5.31
2022-12-18T22:11:41.715Z,5.33
2022-12-18T22:14:09.042Z,5.30
2022-12-18T22:16:35.935Z,5.30
2022-12-18T22:19:05.244Z,5.34
2022-12-18T22:21:33.539Z,5.38
2022-12-18T22:24:01.951Z,5.33
2022-12-18T22:26:30.440Z,5.34
2022-12-18T22:29:18.435Z,5.35
2022-12-18T22:31:45.219Z,5.29
2022-12-18T22:34:12.299Z,5.33
2022-12-18T22:36:40.782Z,5.26
2022-12-18T22:39:13.088Z,5.30
2022-12-18T22:41:39.824Z,5.29
2022-12-18T22:44:07.063Z,5.26
2022-12-18T22:46:42.357Z,5.28
2022-12-18T22:49:13.511Z,5.31
2022-12-18T22:51:40.254Z,5.29
2022-12-18T22:54:07.326Z,5.25
2022-12-18T22:56:34.340Z,5.25
2022-12-18T22:59:01.440Z,5.31
2022-12-18T23:01:28.858Z,5.30
2022-12-18T23:03:56.114Z,5.29
2022-12-18T23:06:23.454Z,5.27
2022-12-18T23:08:55.896Z,5.26
2022-12-18T23:11:22.874Z,5.24
2022-12-18T23:13:49.897Z,5.20
2022-12-18T23:16:18.090Z,5.21
2022-12-18T23:18:45.310Z,5.23
2022-12-18T23:21:14.119Z,5.29
2022-12-18T23:23:41.518Z,5.25
2022-12-18T23:26:16.305Z,5.25
2022-12-18T23:28:43.434Z,5.24
2022-12-18T23:31:14.189Z,5.19
2022-12-18T23:33:43.311Z,5.23
2022-12-18T23:36:11.593Z,5.27
2022-12-18T23:38:38.635Z,5.24
2022-12-18T23:41:13.577Z,5.25
2022-12-18T23:43:40.874Z,5.24
2022-12-18T23:46:20.485Z,5.25
2022-12-18T23:48:47.849Z,5.26
2022-12-18T23:51:15.120Z,5.26
2022-12-18T23:53:42.193Z,5.29
2022-12-18T23:56:09.586Z,5.24
2022-12-18T23:58:36.778Z,5.24
